Time;durP1;ratioP1;P1;durP2;ratioP2;P2;SDS_P1;SDS_P2;PMS_P1;PMS_P2;Temp;Humidity;BMP_temperature;BMP_pressure;BME280_temperature;BME280_humidity;BME280_pressure;Samples;Min_cycle;Max_cycle;Signal;HPM_P1;HPM_P2
2021/03/25 00:01:23;;;;;;;19.48;10.63;;;18.10;55.90;;;;;;4981474;28;20073;-70
2021/03/25 00:03:51;;;;;;;15.57;10.38;;;18.10;55.90;;;;;;4991270;28;20022;-69
2021/03/25 00:06:18;;;;;;;16.65;10.52;;;18.00;55.80;;;;;;4992351;28;20026;-69
2021/03/25 00:08:44;;;;;;;15.10;9.73;;;18.00;55.80;;;;;;4974423;28;20027;-69
2021/03/25 00:11:09;;;;;;;15.27;10.35;;;18.00;55.70;;;;;;4972191;28;20035;-69
2021/03/25 00:13:35;;;;;;;16.65;10.55;;;18.10;55.70;;;;;;4979281;28;20480;-69
2021/03/25 00:16:03;;;;;;;15.45;10.10;;;18.00;55.60;;;;;;4975498;28;20405;-69
2021/03/25 00:18:30;;;;;;;15.80;10.52;;;18.00;55.50;;;;;;4983986;28;20030;-69
2021/03/25 00:20:56;;;;;;;13.50;9.45;;;18.00;55.60;;;;;;4977525;28;20031;-69
2021/03/25 00:23:21;;;;;;;20.83;11.10;;;18.00;55.50;;;;;;4972787;28;20109;-68
2021/03/25 00:25:47;;;;;;;16.15;10.90;;;18.00;55.50;;;;;;4984532;28;20569;-69
2021/03/25 00:28:14;;;;;;;16.13;10.30;;;17.90;55.40;;;;;;4981492;28;20030;-69
2021/03/25 00:30:40;;;;;;;15.25;10.13;;;18.00;55.40;;;;;;4982473;28;20034;-68
2021/03/25 00:33:08;;;;;;;14.95;10.20;;;18.00;55.40;;;;;;4980657;28;20207;-69
2021/03/25 00:35:35;;;;;;;16.85;10.65;;;18.00;55.40;;;;;;4981934;28;20077;-69
2021/03/25 00:38:02;;;;;;;16.35;10.23;;;17.90;55.30;;;;;;4990469;28;20528;-68
2021/03/25 00:40:27;;;;;;;15.10;10.43;;;17.90;55.30;;;;;;4991854;28;20113;-69
2021/03/25 00:42:53;;;;;;;14.52;9.82;;;17.90;55.40;;;;;;4984724;28;20117;-69
2021/03/25 00:45:25;;;;;;;15.52;10.38;;;17.90;55.40;;;;;;4982007;28;20109;-69
2021/03/25 00:47:50;;;;;;;16.42;10.23;;;17.80;55.30;;;;;;4972987;28;20035;-70
2021/03/25 00:50:39;;;;;;;15.15;10.48;;;17.80;55.30;;;;;;4975559;28;20026;-70
2021/03/25 00:53:06;;;;;;;15.65;10.15;;;17.80;55.20;;;;;;4973612;28;20082;-69
2021/03/25 00:55:31;;;;;;;17.00;10.63;;;17.80;55.10;;;;;;4973593;28;20110;-69
2021/03/25 00:57:57;;;;;;;14.57;10.38;;;17.80;55.20;;;;;;4977063;28;20105;-69
2021/03/25 01:00:31;;;;;;;16.52;10.95;;;17.80;55.10;;;;;;4976427;28;20031;-69
2021/03/25 01:02:57;;;;;;;15.63;10.38;;;17.80;55.00;;;;;;4974441;28;20055;-69
2021/03/25 01:05:24;;;;;;;16.42;10.93;;;17.80;55.00;;;;;;4984810;28;20480;-69
2021/03/25 01:07:50;;;;;;;15.68;10.68;;;17.80;55.00;;;;;;4995840;28;20077;-69
2021/03/25 01:10:28;;;;;;;16.35;11.27;;;17.70;55.10;;;;;;4994171;28;20058;-69
2021/03/25 01:12:54;;;;;;;17.92;10.77;;;17.70;55.00;;;;;;4983705;28;20023;-69
2021/03/25 01:15:20;;;;;;;17.77;10.90;;;17.70;55.00;;;;;;4983130;28;20034;-69
2021/03/25 01:17:49;;;;;;;16.38;10.93;;;17.70;55.10;;;;;;4995564;28;20105;-69
2021/03/25 01:20:18;;;;;;;17.90;10.65;;;17.70;55.00;;;;;;4995337;28;20049;-69
2021/03/25 01:22:43;;;;;;;16.48;11.40;;;17.70;55.00;;;;;;4978683;28;20488;-69
2021/03/25 01:25:10;;;;;;;16.85;10.77;;;17.60;54.90;;;;;;4979582;28;20038;-69
2021/03/25 01:27:35;;;;;;;17.17;11.20;;;17.60;55.00;;;;;;4988226;28;20022;-69
2021/03/25 01:30:02;;;;;;;18.05;11.57;;;17.60;54.90;;;;;;4977727;28;20097;-69
2021/03/25 01:32:28;;;;;;;17.85;12.00;;;17.60;54.80;;;;;;4985909;28;20400;-69
2021/03/25 01:34:53;;;;;;;16.50;11.23;;;17.60;54.90;;;;;;4982230;28;20052;-69
2021/03/25 01:37:19;;;;;;;17.05;12.00;;;17.60;54.80;;;;;;4990462;28;20427;-69
2021/03/25 01:39:44;;;;;;;16.80;12.20;;;17.60;54.80;;;;;;4991655;28;20035;-69
2021/03/25 01:42:22;;;;;;;17.40;11.80;;;17.60;54.80;;;;;;4987805;28;20023;-69
2021/03/25 01:44:47;;;;;;;18.15;12.50;;;17.60;54.80;;;;;;4979756;28;20073;-69
2021/03/25 01:47:13;;;;;;;19.10;12.23;;;17.60;54.70;;;;;;4975594;28;20115;-69
2021/03/25 01:49:38;;;;;;;18.08;12.55;;;17.60;54.80;;;;;;4977286;28;20110;-69
2021/03/25 01:52:27;;;;;;;18.75;12.63;;;17.60;54.70;;;;;;4980159;28;20034;-69
2021/03/25 01:55:01;;;;;;;19.73;12.15;;;17.60;54.90;;;;;;4988515;28;20027;-69
2021/03/25 01:57:57;;;;;;;18.40;12.43;;;17.60;54.80;;;;;;4983322;28;20031;-69
2021/03/25 02:00:31;;;;;;;18.15;11.80;;;17.60;54.90;;;;;;4985954;28;20026;-70
2021/03/25 02:03:25;;;;;;;18.00;12.07;;;17.50;54.90;;;;;;4978849;28;20492;-69
2021/03/25 02:06:22;;;;;;;19.63;11.90;;;17.50;54.80;;;;;;4993143;28;20065;-69
2021/03/25 02:09:09;;;;;;;16.50;11.40;;;17.50;54.80;;;;;;4973920;28;20035;-69
2021/03/25 02:12:04;;;;;;;17.77;12.07;;;17.50;54.90;;;;;;4978100;28;20031;-69
2021/03/25 02:14:55;;;;;;;20.98;11.93;;;17.50;54.90;;;;;;4992414;28;20519;-69
2021/03/25 02:17:50;;;;;;;16.25;11.00;;;17.50;54.90;;;;;;4994706;28;20034;-69
2021/03/25 02:20:31;;;;;;;17.70;12.02;;;17.40;55.00;;;;;;4993015;28;20026;-69
2021/03/25 02:23:12;;;;;;;18.92;12.27;;;17.40;54.90;;;;;;4975324;28;20034;-70
2021/03/25 02:25:46;;;;;;;20.13;12.68;;;17.40;54.80;;;;;;4980006;28;20089;-70
2021/03/25 02:28:29;;;;;;;18.67;12.95;;;17.40;54.80;;;;;;4980472;28;20388;-69
2021/03/25 02:31:20;;;;;;;20.52;13.02;;;17.40;54.80;;;;;;4992493;28;20030;-69
2021/03/25 02:33:50;;;;;;;18.15;12.40;;;17.40;54.80;;;;;;4984099;28;20583;-69
2021/03/25 02:36:21;;;;;;;19.38;13.15;;;17.40;54.80;;;;;;4978424;28;20101;-70
2021/03/25 02:38:53;;;;;;;;;;;17.40;54.80;;;;;;4991446;28;20464;-69
2021/03/25 02:41:27;;;;;;;18.55;12.60;;;17.40;54.70;;;;;;4977262;28;19968;-69
2021/03/25 02:43:55;;;;;;;20.83;13.80;;;17.40;54.80;;;;;;5080291;23;20071;-68
2021/03/25 02:46:36;;;;;;;19.23;13.52;;;17.30;54.80;;;;;;5052516;28;20049;-67
2021/03/25 02:49:05;;;;;;;19.42;13.57;;;17.30;54.80;;;;;;5051206;28;20520;-67
2021/03/25 02:51:38;;;;;;;20.02;13.98;;;17.30;54.80;;;;;;5051633;28;20036;-67
2021/03/25 02:54:05;;;;;;;19.17;12.27;;;17.30;54.90;;;;;;5030052;28;20029;-68
2021/03/25 02:56:52;;;;;;;21.77;13.85;;;17.30;54.80;;;;;;5020719;28;20490;-67
2021/03/25 02:59:41;;;;;;;19.35;13.52;;;17.30;54.90;;;;;;5014843;28;20038;-67
2021/03/25 03:02:35;;;;;;;20.52;14.43;;;17.30;54.90;;;;;;5012345;28;20506;-68
2021/03/25 03:05:18;;;;;;;22.00;13.82;;;17.30;54.80;;;;;;5012758;28;20041;-67
2021/03/25 03:07:57;;;;;;;19.70;12.82;;;17.30;54.90;;;;;;5023310;28;20030;-68
2021/03/25 03:10:52;;;;;;;19.92;13.77;;;17.20;54.90;;;;;;5028578;28;20051;-68
2021/03/25 03:13:22;;;;;;;19.83;13.93;;;17.20;55.00;;;;;;5020301;28;20021;-68
2021/03/25 03:16:10;;;;;;;19.77;14.30;;;17.20;54.90;;;;;;5030305;28;20487;-68
2021/03/25 03:18:43;;;;;;;20.13;14.20;;;17.20;54.90;;;;;;5023977;28;20399;-67
2021/03/25 03:21:20;;;;;;;19.55;13.65;;;17.10;54.90;;;;;;5028828;28;20309;-68
2021/03/25 03:23:46;;;;;;;19.55;13.57;;;17.20;54.90;;;;;;5013269;28;20038;-68
2021/03/25 03:26:21;;;;;;;22.55;14.32;;;17.10;55.00;;;;;;5016089;28;20030;-67
2021/03/25 03:28:50;;;;;;;21.17;14.55;;;17.10;54.90;;;;;;5016354;28;20033;-68
2021/03/25 03:31:22;;;;;;;21.08;14.38;;;17.10;54.80;;;;;;5013996;28;20034;-68
2021/03/25 03:33:52;;;;;;;22.73;14.75;;;17.10;54.90;;;;;;5013242;28;20440;-68
2021/03/25 03:36:21;;;;;;;21.35;14.45;;;17.10;55.00;;;;;;5021485;28;20029;-69
2021/03/25 03:38:55;;;;;;;21.65;14.18;;;17.10;55.00;;;;;;5012856;28;20030;-67
2021/03/25 03:41:28;;;;;;;20.30;14.90;;;17.00;55.10;;;;;;5024691;28;20025;-68
2021/03/25 03:43:55;;;;;;;20.25;14.43;;;17.00;54.90;;;;;;5018834;28;20082;-68
2021/03/25 03:46:24;;;;;;;23.02;15.00;;;17.00;55.00;;;;;;5031432;28;20074;-68
2021/03/25 03:49:10;;;;;;;20.25;14.15;;;17.00;55.00;;;;;;5011159;28;20041;-68
2021/03/25 03:51:53;;;;;;;19.90;14.50;;;17.00;55.10;;;;;;5021029;28;20068;-68
2021/03/25 03:54:20;;;;;;;21.17;14.23;;;17.00;55.10;;;;;;5011587;28;20113;-68
2021/03/25 03:57:20;;;;;;;20.23;14.18;;;17.00;55.10;;;;;;5022658;28;20029;-68
2021/03/25 04:00:02;;;;;;;21.60;14.10;;;16.90;55.10;;;;;;5016328;28;20029;-68
2021/03/25 04:02:43;;;;;;;21.77;14.82;;;17.00;55.10;;;;;;5029837;28;20064;-68
2021/03/25 04:05:27;;;;;;;21.40;14.77;;;16.90;55.00;;;;;;5012335;28;20014;-68
2021/03/25 04:08:18;;;;;;;20.75;14.65;;;16.90;55.10;;;;;;5020942;28;20022;-68
2021/03/25 04:11:05;;;;;;;20.33;14.75;;;16.90;55.10;;;;;;5010611;28;20545;-67
2021/03/25 04:13:38;;;;;;;18.75;14.00;;;16.90;55.10;;;;;;5029447;28;20084;-67
2021/03/25 04:16:03;;;;;;;21.52;14.10;;;16.90;55.20;;;;;;5018347;28;20030;-68
2021/03/25 04:19:17;;;;;;;18.52;13.25;;;16.90;55.10;;;;;;5016692;28;20040;-68
2021/03/25 04:21:52;;;;;;;19.75;14.48;;;16.90;55.20;;;;;;5002715;28;20125;-68
2021/03/25 04:24:26;;;;;;;20.17;13.85;;;16.80;55.20;;;;;;5025344;28;20567;-70
2021/03/25 04:27:05;;;;;;;21.27;14.88;;;16.80;55.10;;;;;;5022237;28;20037;-68
2021/03/25 04:29:39;;;;;;;19.90;13.95;;;16.80;55.10;;;;;;5026832;28;20513;-68
2021/03/25 04:32:05;;;;;;;21.38;15.13;;;16.80;55.10;;;;;;5028005;28;20439;-68
2021/03/25 04:34:31;;;;;;;19.55;14.13;;;16.80;55.10;;;;;;5030852;28;20026;-68
2021/03/25 04:36:58;;;;;;;20.40;14.70;;;16.80;55.10;;;;;;5011969;28;20026;-68
2021/03/25 04:39:25;;;;;;;19.55;14.35;;;16.80;55.20;;;;;;5025439;28;20030;-68
2021/03/25 04:41:52;;;;;;;21.70;14.68;;;16.80;55.20;;;;;;5022807;28;20030;-68
2021/03/25 04:44:40;;;;;;;20.98;15.32;;;16.80;55.20;;;;;;5025928;28;20029;-68
2021/03/25 04:47:24;;;;;;;21.38;14.90;;;16.80;55.20;;;;;;5018151;28;20495;-68
2021/03/25 04:49:55;;;;;;;20.00;14.40;;;16.70;55.20;;;;;;5026206;28;20564;-67
2021/03/25 04:52:29;;;;;;;20.65;13.90;;;16.80;55.10;;;;;;5019418;28;20029;-68
2021/03/25 04:55:03;;;;;;;20.10;13.95;;;16.70;55.10;;;;;;5025855;28;20399;-68
2021/03/25 04:57:37;;;;;;;20.13;14.75;;;16.70;55.10;;;;;;5017815;28;20026;-68
2021/03/25 05:00:15;;;;;;;21.73;14.52;;;16.70;55.10;;;;;;5027968;28;20100;-68
2021/03/25 05:02:41;;;;;;;21.10;13.93;;;16.80;55.10;;;;;;5011865;28;20089;-68
2021/03/25 05:05:13;;;;;;;19.70;13.70;;;16.80;55.10;;;;;;5012631;28;20076;-68
2021/03/25 05:07:39;;;;;;;;;;;16.70;55.10;;;;;;5023402;28;20025;-68
2021/03/25 05:10:16;;;;;;;20.80;14.18;;;16.70;55.10;;;;;;5025672;28;20386;-68
2021/03/25 05:12:42;;;;;;;20.40;14.27;;;16.70;55.00;;;;;;5018186;28;20025;-68
2021/03/25 05:15:14;;;;;;;19.40;13.38;;;16.70;55.10;;;;;;5025978;28;20109;-67
2021/03/25 05:18:04;;;;;;;19.23;13.95;;;16.70;55.10;;;;;;5022081;28;20026;-67
2021/03/25 05:20:43;;;;;;;21.25;14.73;;;16.70;55.10;;;;;;5010168;28;20032;-68
2021/03/25 05:23:17;;;;;;;20.02;13.95;;;16.70;55.20;;;;;;5015151;28;20084;-68
2021/03/25 05:26:01;;;;;;;19.48;12.77;;;16.70;55.30;;;;;;5003124;28;20025;-67
2021/03/25 05:28:49;;;;;;;17.85;13.18;;;16.80;55.30;;;;;;5007467;28;20115;-67
2021/03/25 05:31:17;;;;;;;19.48;12.93;;;16.70;55.60;;;;;;5016888;28;20947;-68
2021/03/25 05:33:52;;;;;;;19.30;13.68;;;16.70;55.60;;;;;;5016734;28;20029;-68
2021/03/25 05:36:18;;;;;;;20.98;14.05;;;16.70;55.30;;;;;;5003868;28;20026;-68
2021/03/25 05:38:44;;;;;;;18.42;13.80;;;16.80;55.00;;;;;;5005042;28;20052;-68
2021/03/25 05:41:29;;;;;;;21.75;13.35;;;17.10;54.60;;;;;;5011894;28;20010;-67
2021/03/25 05:44:34;;;;;;;22.17;14.90;;;17.40;53.70;;;;;;5019586;28;20128;-66
2021/03/25 05:47:37;;;;;;;20.35;13.70;;;17.10;54.30;;;;;;5023803;28;20096;-68
2021/03/25 05:50:06;;;;;;;27.33;14.85;;;16.90;55.00;;;;;;5026576;28;20068;-67
2021/03/25 05:53:01;;;;;;;24.75;14.85;;;16.90;55.40;;;;;;5008795;28;20033;-67
2021/03/25 05:55:42;;;;;;;26.02;15.80;;;16.80;55.30;;;;;;5008783;28;20058;-67
2021/03/25 05:58:32;;;;;;;23.92;15.45;;;16.80;55.30;;;;;;5024036;28;20059;-67
2021/03/25 06:01:13;;;;;;;25.83;16.77;;;16.80;54.90;;;;;;5008527;28;20026;-68
2021/03/25 06:03:46;;;;;;;24.92;16.33;;;16.80;54.60;;;;;;5011941;28;20025;-66
2021/03/25 06:06:23;;;;;;;23.73;15.70;;;16.90;54.50;;;;;;5024535;28;20040;-67
2021/03/25 06:09:01;;;;;;;26.50;16.33;;;16.80;54.30;;;;;;5027137;28;20048;-69
2021/03/25 06:11:37;;;;;;;31.48;16.13;;;16.90;55.40;;;;;;5026320;28;20037;-69
2021/03/25 06:14:34;;;;;;;23.80;16.05;;;16.90;55.00;;;;;;5023988;28;20037;-71
2021/03/25 06:17:33;;;;;;;28.88;16.83;;;17.00;57.00;;;;;;5027270;28;20022;-66
2021/03/25 06:20:22;;;;;;;42.77;17.20;;;17.10;57.20;;;;;;5020072;28;20341;-64
2021/03/25 06:23:21;;;;;;;35.33;16.40;;;17.20;56.70;;;;;;5024424;28;20591;-64
2021/03/25 06:26:11;;;;;;;34.13;15.90;;;17.20;56.20;;;;;;5026860;28;20041;-65
2021/03/25 06:28:45;;;;;;;25.15;15.27;;;17.20;56.20;;;;;;5026642;28;20096;-66
2021/03/25 06:32:01;;;;;;;39.35;16.55;;;17.30;55.70;;;;;;5026167;28;20036;-65
2021/03/25 06:34:42;;;;;;;26.77;14.63;;;17.20;55.80;;;;;;4969927;28;20514;-65
2021/03/25 06:37:16;;;;;;;25.85;16.05;;;17.20;55.70;;;;;;4986391;28;20019;-65
2021/03/25 06:39:54;;;;;;;29.85;15.70;;;17.10;55.40;;;;;;5015784;28;20499;-66
2021/03/25 06:42:42;;;;;;;26.88;14.93;;;17.00;55.60;;;;;;5028072;28;20394;-65
2021/03/25 06:45:12;;;;;;;30.40;16.25;;;17.10;55.50;;;;;;5027495;28;20395;-65
2021/03/25 06:47:38;;;;;;;28.25;15.52;;;17.00;55.20;;;;;;5028097;28;20025;-66
2021/03/25 06:50:07;;;;;;;27.63;15.07;;;17.00;55.30;;;;;;5027609;28;20513;-66
2021/03/25 06:52:36;;;;;;;27.25;15.23;;;17.00;55.40;;;;;;5027883;28;20056;-66
2021/03/25 06:55:26;;;;;;;27.98;14.38;;;17.00;55.50;;;;;;5027857;28;20040;-65
2021/03/25 06:58:01;;;;;;;32.15;15.40;;;17.00;56.30;;;;;;5030587;28;20502;-66
2021/03/25 07:00:30;;;;;;;30.08;15.73;;;17.00;56.30;;;;;;5032639;28;20021;-65
2021/03/25 07:02:58;;;;;;;27.23;16.23;;;17.00;56.90;;;;;;5031691;28;20029;-66
2021/03/25 07:05:29;;;;;;;31.70;15.85;;;16.90;56.80;;;;;;5031813;28;20026;-66
2021/03/25 07:08:13;;;;;;;25.98;14.73;;;16.90;56.60;;;;;;5033040;28;20475;-64
2021/03/25 07:10:39;;;;;;;26.60;15.02;;;16.90;56.60;;;;;;5031680;28;20079;-66
2021/03/25 07:13:05;;;;;;;26.42;16.02;;;16.90;56.30;;;;;;5032758;28;20033;-66
2021/03/25 07:15:35;;;;;;;25.88;15.27;;;16.90;56.00;;;;;;5031729;28;20017;-66
2021/03/25 07:18:06;;;;;;;22.25;14.48;;;16.90;56.00;;;;;;5031367;28;20461;-66
2021/03/25 07:20:35;;;;;;;22.67;14.05;;;16.90;55.90;;;;;;5032879;28;20436;-66
2021/03/25 07:23:10;;;;;;;23.50;14.77;;;16.90;55.70;;;;;;5031419;28;20414;-66
2021/03/25 07:25:41;;;;;;;23.88;15.30;;;16.90;55.60;;;;;;5032797;28;20021;-66
2021/03/25 07:28:12;;;;;;;23.17;14.87;;;16.90;55.60;;;;;;5031123;28;20029;-65
2021/03/25 07:30:43;;;;;;;22.63;15.60;;;16.90;55.40;;;;;;5032130;28;20292;-66
2021/03/25 07:33:13;;;;;;;22.65;14.45;;;16.90;55.40;;;;;;5032424;28;20030;-66
2021/03/25 07:35:54;;;;;;;22.45;14.77;;;16.90;55.40;;;;;;5032591;28;20392;-66
2021/03/25 07:38:27;;;;;;;22.90;15.30;;;16.90;55.30;;;;;;5032208;28;20024;-65
2021/03/25 07:41:20;;;;;;;23.23;14.75;;;16.90;55.20;;;;;;5031451;28;20449;-66
2021/03/25 07:44:02;;;;;;;20.95;14.65;;;16.90;55.30;;;;;;5032325;28;20099;-66
2021/03/25 07:46:49;;;;;;;25.92;14.85;;;16.90;55.30;;;;;;5032249;28;20441;-65
2021/03/25 07:49:19;;;;;;;22.77;14.15;;;16.90;55.30;;;;;;5032019;28;20025;-66
2021/03/25 07:51:58;;;;;;;22.00;14.38;;;16.90;55.30;;;;;;5032330;28;20037;-66
2021/03/25 07:54:23;;;;;;;23.67;14.80;;;16.90;55.30;;;;;;5030768;28;20025;-65
2021/03/25 07:56:53;;;;;;;20.75;14.60;;;16.90;55.20;;;;;;5032164;28;20025;-65
2021/03/25 07:59:47;;;;;;;23.95;14.82;;;16.90;55.20;;;;;;5031837;28;20021;-66
2021/03/25 08:02:22;;;;;;;21.73;14.30;;;16.90;55.20;;;;;;5030745;28;20021;-66
2021/03/25 08:04:48;;;;;;;24.05;14.88;;;16.90;55.10;;;;;;5031910;28;20376;-65
2021/03/25 08:07:13;;;;;;;23.02;14.60;;;16.90;55.30;;;;;;5031984;28;20083;-67
2021/03/25 08:09:56;;;;;;;24.15;15.73;;;16.90;55.20;;;;;;5031779;28;20036;-66
2021/03/25 08:12:35;;;;;;;23.00;14.80;;;16.90;55.40;;;;;;5031144;28;20508;-66
2021/03/25 08:15:13;;;;;;;22.85;15.32;;;16.90;55.40;;;;;;5030438;28;20026;-66
2021/03/25 08:17:54;;;;;;;22.48;15.02;;;17.00;55.20;;;;;;5031870;28;20029;-66
2021/03/25 08:20:35;;;;;;;22.65;15.50;;;17.00;55.30;;;;;;5030342;28;20021;-65
2021/03/25 08:23:03;;;;;;;22.85;15.15;;;17.10;55.20;;;;;;5030481;28;20022;-65
2021/03/25 08:25:34;;;;;;;24.27;16.20;;;17.10;55.60;;;;;;5031646;28;20028;-66
2021/03/25 08:28:05;;;;;;;21.80;14.80;;;17.20;55.70;;;;;;5030457;28;20025;-65
2021/03/25 08:30:40;;;;;;;21.50;15.70;;;17.20;55.70;;;;;;5031149;28;20256;-65
2021/03/25 08:33:18;;;;;;;21.38;14.52;;;17.20;55.40;;;;;;5031482;28;20030;-66
2021/03/25 08:35:58;;;;;;;23.05;16.42;;;17.30;55.20;;;;;;5030394;28;20025;-66
2021/03/25 08:39:11;;;;;;;22.98;15.65;;;17.40;55.00;;;;;;5031473;28;20383;-65
2021/03/25 08:41:47;;;;;;;22.35;15.70;;;17.50;54.90;;;;;;5024862;28;20372;-65
2021/03/25 08:44:50;;;;;;;21.58;14.63;;;17.70;54.40;;;;;;5031470;28;20395;-66
2021/03/25 08:47:48;;;;;;;25.77;15.20;;;17.90;53.70;;;;;;5030248;28;20068;-66
2021/03/25 08:50:42;;;;;;;21.65;15.55;;;18.00;53.10;;;;;;5031198;28;20049;-67
2021/03/25 08:53:35;;;;;;;21.75;16.20;;;18.00;52.40;;;;;;5030059;28;20127;-66
2021/03/25 08:56:13;;;;;;;21.27;15.65;;;18.00;52.40;;;;;;5026129;28;20061;-67
2021/03/25 08:58:40;;;;;;;25.25;17.20;;;17.90;52.30;;;;;;5031167;28;20029;-67
2021/03/25 09:01:14;;;;;;;24.13;15.57;;;17.80;52.40;;;;;;5030093;28;20079;-67
2021/03/25 09:03:45;;;;;;;23.33;16.60;;;17.70;52.80;;;;;;5031374;28;20033;-66
2021/03/25 09:06:14;;;;;;;23.73;16.83;;;17.60;53.00;;;;;;5030110;28;20025;-66
2021/03/25 09:08:42;;;;;;;22.10;15.88;;;17.50;53.10;;;;;;5031024;28;20395;-67
2021/03/25 09:11:12;;;;;;;23.67;15.88;;;17.50;53.60;;;;;;5031278;28;20021;-67
2021/03/25 09:13:43;;;;;;;22.83;16.35;;;17.50;53.50;;;;;;5031096;28;20029;-66
2021/03/25 09:16:31;;;;;;;24.80;17.35;;;17.40;53.40;;;;;;5031424;28;20024;-68
2021/03/25 09:18:58;;;;;;;22.35;15.82;;;17.40;53.50;;;;;;5029194;28;20030;-68
2021/03/25 09:21:29;;;;;;;22.10;15.25;;;17.40;53.60;;;;;;5029904;28;20031;-66
2021/03/25 09:24:04;;;;;;;21.30;16.05;;;17.50;53.90;;;;;;5032964;28;20084;-66
2021/03/25 09:26:29;;;;;;;21.98;14.57;;;17.50;53.40;;;;;;5033689;28;20464;-66
2021/03/25 09:29:02;;;;;;;22.52;16.05;;;17.50;53.70;;;;;;5033402;28;20086;-66
2021/03/25 09:31:41;;;;;;;20.75;15.18;;;17.50;53.40;;;;;;5034541;28;20061;-67
2021/03/25 09:34:10;;;;;;;23.95;16.33;;;17.50;53.40;;;;;;5034803;28;20517;-66
2021/03/25 09:36:35;;;;;;;20.63;15.07;;;17.40;53.60;;;;;;5034894;28;20029;-67
2021/03/25 09:39:01;;;;;;;20.73;14.32;;;17.40;53.40;;;;;;5034470;28;20022;-67
2021/03/25 09:41:30;;;;;;;20.70;14.10;;;17.40;53.50;;;;;;5033689;28;20418;-67
2021/03/25 09:44:23;;;;;;;21.65;15.40;;;17.40;53.40;;;;;;5033104;28;20040;-69
2021/03/25 09:47:07;;;;;;;20.83;15.10;;;17.40;53.70;;;;;;5030809;28;20034;-67
2021/03/25 09:50:13;;;;;;;21.10;14.63;;;17.40;53.30;;;;;;5034315;28;20025;-67
2021/03/25 09:53:01;;;;;;;22.98;14.80;;;17.40;53.40;;;;;;5034437;28;20100;-67
2021/03/25 09:55:27;;;;;;;20.52;14.80;;;17.40;53.30;;;;;;5034078;28;20064;-69
2021/03/25 09:57:53;;;;;;;19.45;14.35;;;17.30;53.30;;;;;;5034277;28;20037;-68
2021/03/25 10:00:22;;;;;;;21.30;14.77;;;17.30;53.30;;;;;;5034070;28;20036;-67
2021/03/25 10:02:48;;;;;;;21.92;15.15;;;17.30;53.70;;;;;;5034283;28;20025;-66
2021/03/25 10:05:24;;;;;;;19.30;13.77;;;17.30;53.30;;;;;;5034259;28;20032;-67
2021/03/25 10:07:53;;;;;;;19.88;14.05;;;17.30;53.80;;;;;;5034203;28;20091;-67
2021/03/25 10:10:41;;;;;;;19.60;13.57;;;17.30;53.60;;;;;;5032837;28;20164;-66
2021/03/25 10:13:13;;;;;;;19.45;13.98;;;17.30;53.50;;;;;;5032645;28;20026;-66
2021/03/25 10:15:48;;;;;;;21.55;14.52;;;17.30;53.20;;;;;;5034050;28;20025;-66
2021/03/25 10:18:17;;;;;;;19.40;13.98;;;17.30;53.50;;;;;;5032479;28;20049;-67
2021/03/25 10:21:01;;;;;;;20.23;13.88;;;17.30;53.80;;;;;;5032742;28;20033;-66
2021/03/25 10:23:35;;;;;;;17.85;12.88;;;17.30;53.40;;;;;;5033846;28;20028;-67
2021/03/25 10:26:09;;;;;;;18.17;13.15;;;17.30;53.50;;;;;;5034099;28;20057;-66
2021/03/25 10:29:18;;;;;;;17.40;12.90;;;17.30;53.50;;;;;;5033448;28;20042;-66
2021/03/25 10:31:55;;;;;;;17.70;12.07;;;17.30;53.70;;;;;;5021315;28;20128;-67
2021/03/25 10:34:34;;;;;;;18.27;13.30;;;17.20;53.60;;;;;;5031497;28;20083;-68
2021/03/25 10:37:29;;;;;;;18.25;13.00;;;17.20;53.70;;;;;;5033674;28;20045;-66
2021/03/25 10:40:00;;;;;;;18.85;12.85;;;17.20;53.60;;;;;;5033355;28;20100;-67
2021/03/25 10:42:30;;;;;;;17.35;11.90;;;17.20;54.00;;;;;;5033490;28;20021;-66
2021/03/25 10:44:56;;;;;;;19.02;12.77;;;17.20;54.00;;;;;;5032146;28;20155;-65
2021/03/25 10:47:25;;;;;;;17.55;12.95;;;17.30;53.80;;;;;;5033489;28;20491;-67
2021/03/25 10:49:54;;;;;;;18.05;12.88;;;17.30;53.80;;;;;;5031855;28;20492;-65
2021/03/25 10:52:38;;;;;;;17.10;11.98;;;17.40;53.00;;;;;;5032116;28;20073;-67
2021/03/25 10:55:14;;;;;;;15.80;11.73;;;17.50;53.10;;;;;;5033246;28;20391;-67
2021/03/25 10:57:39;;;;;;;18.70;12.85;;;17.50;53.00;;;;;;5033336;28;20025;-66
2021/03/25 11:00:08;;;;;;;17.95;12.75;;;17.80;52.10;;;;;;5032991;28;20052;-66
2021/03/25 11:02:41;;;;;;;16.30;11.85;;;18.00;51.70;;;;;;5031765;28;20022;-66
2021/03/25 11:05:21;;;;;;;15.35;11.60;;;18.20;50.60;;;;;;5033166;28;20490;-66
2021/03/25 11:07:52;;;;;;;16.08;12.02;;;18.40;50.20;;;;;;5033100;28;20036;-67
2021/03/25 11:10:18;;;;;;;15.32;10.85;;;18.50;50.30;;;;;;5032903;28;20025;-67
2021/03/25 11:12:44;;;;;;;16.17;11.82;;;18.40;50.40;;;;;;5032934;28;20033;-66
2021/03/25 11:15:21;;;;;;;15.98;11.55;;;18.50;50.60;;;;;;5032878;28;20034;-66
2021/03/25 11:17:47;;;;;;;16.60;10.82;;;18.60;50.20;;;;;;5031614;28;20437;-67
2021/03/25 11:20:24;;;;;;;15.55;10.90;;;18.80;49.00;;;;;;5032638;28;20044;-67
2021/03/25 11:22:51;;;;;;;16.38;11.32;;;18.40;50.00;;;;;;5032764;28;20048;-66
2021/03/25 11:25:24;;;;;;;18.90;12.95;;;18.40;50.40;;;;;;5032808;28;20056;-66
2021/03/25 11:28:03;;;;;;;15.35;10.63;;;18.30;50.80;;;;;;5031376;28;20025;-66
2021/03/25 11:30:37;;;;;;;15.50;10.88;;;18.20;50.30;;;;;;5032092;28;20495;-66
2021/03/25 11:33:30;;;;;;;16.35;11.52;;;18.00;51.20;;;;;;5032580;28;20025;-67
2021/03/25 11:35:57;;;;;;;15.50;11.15;;;18.10;51.30;;;;;;5032754;28;20026;-67
2021/03/25 11:38:26;;;;;;;15.68;10.57;;;18.30;51.40;;;;;;5032259;28;20590;-66
2021/03/25 11:41:15;;;;;;;15.13;11.25;;;18.20;51.20;;;;;;5029110;28;20022;-66
2021/03/25 11:44:05;;;;;;;15.10;11.02;;;18.10;51.10;;;;;;5023235;28;20033;-66
2021/03/25 11:46:40;;;;;;;;;;;18.10;51.00;;;;;;5028931;28;20060;-65
2021/03/25 11:49:05;;;;;;;14.88;10.57;;;18.30;51.10;;;;;;5013431;28;19913;-65
2021/03/25 11:51:34;;;;;;;15.57;10.65;;;18.80;49.50;;;;;;5024370;28;20022;-65
2021/03/25 11:54:02;;;;;;;16.17;10.75;;;19.50;47.80;;;;;;5018311;28;20025;-66
2021/03/25 11:56:37;;;;;;;15.88;10.82;;;19.80;46.80;;;;;;5021464;28;20044;-64
2021/03/25 11:59:13;;;;;;;17.38;10.88;;;19.40;47.30;;;;;;5023552;28;20029;-67
2021/03/25 12:01:39;;;;;;;13.93;9.70;;;19.70;47.10;;;;;;5012644;28;20065;-65
2021/03/25 12:04:22;;;;;;;14.27;9.68;;;19.90;46.20;;;;;;5018596;28;20104;-66
2021/03/25 12:07:11;;;;;;;15.70;9.75;;;20.00;46.10;;;;;;5028351;28;20075;-65
2021/03/25 12:09:37;;;;;;;15.07;9.43;;;20.00;45.80;;;;;;5022749;28;20026;-65
2021/03/25 12:12:06;;;;;;;13.60;9.40;;;19.50;46.60;;;;;;5012397;28;20044;-65
2021/03/25 12:14:32;;;;;;;14.77;9.50;;;19.10;47.90;;;;;;5012166;28;20114;-65
2021/03/25 12:17:01;;;;;;;14.40;9.93;;;18.80;48.60;;;;;;5028036;28;20064;-66
2021/03/25 12:19:32;;;;;;;12.73;8.90;;;18.90;49.00;;;;;;5030380;28;20063;-66
2021/03/25 12:21:58;;;;;;;27.73;10.45;;;19.50;47.60;;;;;;5030113;28;20037;-66
2021/03/25 12:24:23;;;;;;;16.45;10.35;;;19.80;46.40;;;;;;5031722;28;20453;-66
2021/03/25 12:26:49;;;;;;;12.90;9.20;;;20.10;45.90;;;;;;5031740;28;20108;-67
2021/03/25 12:29:14;;;;;;;15.32;9.70;;;20.00;46.10;;;;;;5030114;28;20112;-67
2021/03/25 12:31:43;;;;;;;15.15;9.07;;;20.00;45.90;;;;;;5025889;28;20037;-66
2021/03/25 12:34:10;;;;;;;15.15;9.25;;;19.90;45.90;;;;;;5025015;28;20109;-67
2021/03/25 12:36:37;;;;;;;15.30;9.65;;;20.00;45.70;;;;;;5020446;28;20080;-66
2021/03/25 12:39:06;;;;;;;13.00;8.43;;;20.10;45.80;;;;;;5030007;28;20022;-67
2021/03/25 12:41:36;;;;;;;13.57;9.10;;;20.10;45.60;;;;;;5030318;28;20052;-66
2021/03/25 12:44:03;;;;;;;13.95;9.48;;;20.00;45.60;;;;;;5030020;28;20452;-66
2021/03/25 12:46:29;;;;;;;12.63;8.75;;;19.90;45.80;;;;;;5031688;28;20033;-68
2021/03/25 12:48:55;;;;;;;15.38;8.90;;;19.80;46.00;;;;;;5030096;28;20553;-66
2021/03/25 12:51:20;;;;;;;13.95;9.40;;;19.60;46.40;;;;;;5029661;28;20025;-66
2021/03/25 12:53:47;;;;;;;12.55;8.75;;;19.30;47.20;;;;;;5025886;28;20034;-64
2021/03/25 12:56:19;;;;;;;12.10;8.15;;;19.00;48.00;;;;;;5011649;28;20029;-66
2021/03/25 12:58:44;;;;;;;11.52;8.25;;;18.80;48.40;;;;;;5014041;28;20026;-66
2021/03/25 13:01:13;;;;;;;14.07;8.20;;;18.60;49.00;;;;;;5014423;28;20396;-66
2021/03/25 13:03:40;;;;;;;13.27;8.02;;;18.50;49.40;;;;;;5014272;28;20026;-66
2021/03/25 13:06:07;;;;;;;12.57;8.38;;;18.60;49.40;;;;;;5014323;28;20516;-66
2021/03/25 13:08:34;;;;;;;11.32;7.85;;;18.40;49.40;;;;;;5022780;28;20039;-65